Time;durP1;ratioP1;P1;durP2;ratioP2;P2;SDS_P1;SDS_P2;PMS_P1;PMS_P2;Temp;Humidity;BMP_temperature;BMP_pressure;BME280_temperature;BME280_humidity;BME280_pressure;Samples;Min_cycle;Max_cycle;Signal;HPM_P1;HPM_P2
2023/08/14 00:02:02;;;;;;;7.28;3.08;;;16.10;99.90;;;;;;5099143;28;20040;-56
2023/08/14 00:04:28;;;;;;;8.15;3.10;;;16.10;99.90;;;;;;5079156;28;20074;-55
2023/08/14 00:06:54;;;;;;;8.00;2.67;;;16.00;99.90;;;;;;5098501;28;20047;-56
2023/08/14 00:09:20;;;;;;;6.55;3.05;;;16.00;99.90;;;;;;5098654;28;20047;-56
2023/08/14 00:11:46;;;;;;;5.50;2.90;;;16.00;99.90;;;;;;5097239;28;20095;-55
2023/08/14 00:14:11;;;;;;;5.88;2.90;;;16.10;99.90;;;;;;5099570;28;20075;-55
2023/08/14 00:16:37;;;;;;;7.30;3.42;;;16.10;99.90;;;;;;5096572;28;20108;-55
2023/08/14 00:19:03;;;;;;;5.85;2.78;;;16.10;99.90;;;;;;5098379;28;20052;-56
2023/08/14 00:21:29;;;;;;;6.25;2.90;;;16.10;99.90;;;;;;5097293;28;20040;-56
2023/08/14 00:23:55;;;;;;;6.30;2.78;;;15.90;99.90;;;;;;5098580;28;20043;-56
2023/08/14 00:26:20;;;;;;;5.40;2.83;;;15.90;99.90;;;;;;5079900;28;20101;-55
2023/08/14 00:28:46;;;;;;;8.85;2.90;;;15.80;99.90;;;;;;5097034;28;20064;-56
2023/08/14 00:31:11;;;;;;;7.10;2.83;;;15.90;99.90;;;;;;5099004;28;20074;-55
2023/08/14 00:33:37;;;;;;;8.55;2.83;;;15.90;99.90;;;;;;5096341;28;20055;-56
2023/08/14 00:36:05;;;;;;;7.18;3.13;;;15.80;99.90;;;;;;5098721;28;20105;-56
2023/08/14 00:38:31;;;;;;;5.40;3.00;;;15.90;99.90;;;;;;5096562;28;20483;-56
2023/08/14 00:40:57;;;;;;;5.32;3.00;;;15.80;99.90;;;;;;5098226;28;20084;-56
2023/08/14 00:43:22;;;;;;;5.80;2.95;;;15.90;99.90;;;;;;5097578;28;20044;-56
2023/08/14 00:45:51;;;;;;;5.45;2.78;;;15.80;99.90;;;;;;5097342;28;20032;-56
2023/08/14 00:48:17;;;;;;;7.10;3.17;;;15.80;99.90;;;;;;5098736;28;20109;-56
2023/08/14 00:50:43;;;;;;;6.15;2.90;;;15.90;99.90;;;;;;5096373;28;20044;-56
2023/08/14 00:53:10;;;;;;;8.45;3.13;;;15.70;99.90;;;;;;5098409;28;20055;-56
2023/08/14 00:55:36;;;;;;;7.18;3.10;;;15.80;99.90;;;;;;5092886;28;20085;-56
2023/08/14 00:58:02;;;;;;;6.35;3.10;;;15.80;99.90;;;;;;5078025;28;20098;-58
2023/08/14 01:00:29;;;;;;;6.22;3.35;;;15.90;99.90;;;;;;5077018;28;20492;-56
2023/08/14 01:02:55;;;;;;;7.57;3.15;;;15.90;99.90;;;;;;5077221;28;20037;-56
2023/08/14 01:05:22;;;;;;;8.15;3.20;;;15.80;99.90;;;;;;5060535;28;20091;-56
2023/08/14 01:07:48;;;;;;;6.55;3.33;;;15.80;99.90;;;;;;5077243;28;20434;-56
2023/08/14 01:10:14;;;;;;;7.63;3.33;;;15.70;99.90;;;;;;5082596;28;20064;-56
2023/08/14 01:12:48;;;;;;;5.70;3.10;;;15.70;99.90;;;;;;5079999;28;20028;-56
2023/08/14 01:15:25;;;;;;;7.43;3.13;;;15.60;99.90;;;;;;5081635;28;20051;-56
2023/08/14 01:17:57;;;;;;;8.02;3.55;;;15.60;99.90;;;;;;5080905;28;20040;-55
2023/08/14 01:20:24;;;;;;;;;;;15.70;99.90;;;;;;5080629;28;20053;-56
2023/08/14 01:23:14;;;;;;;8.35;3.40;;;15.60;99.90;;;;;;5082209;28;19921;-56
2023/08/14 01:25:40;;;;;;;7.32;3.60;;;15.60;99.90;;;;;;5080112;28;20048;-56
2023/08/14 01:28:08;;;;;;;8.52;3.47;;;15.60;99.90;;;;;;5081603;28;20549;-56
2023/08/14 01:30:34;;;;;;;6.78;3.25;;;15.60;99.90;;;;;;5081088;28;20037;-55
2023/08/14 01:33:00;;;;;;;6.50;3.60;;;15.50;99.90;;;;;;5080778;28;20596;-56
2023/08/14 01:35:30;;;;;;;7.85;3.55;;;15.60;99.90;;;;;;5082049;28;20131;-56
2023/08/14 01:38:00;;;;;;;6.85;3.33;;;15.60;99.90;;;;;;5079524;28;20090;-56
2023/08/14 01:40:28;;;;;;;8.98;3.58;;;15.70;99.90;;;;;;5081657;28;20098;-56
2023/08/14 01:43:00;;;;;;;6.00;3.40;;;15.70;99.90;;;;;;5079463;28;20059;-55
2023/08/14 01:45:28;;;;;;;8.35;4.00;;;15.50;99.90;;;;;;5081422;28;20041;-56
2023/08/14 01:47:57;;;;;;;9.00;3.58;;;15.70;99.90;;;;;;5080856;28;20071;-56
2023/08/14 01:50:25;;;;;;;7.93;3.70;;;15.40;99.90;;;;;;5079745;28;20076;-56
2023/08/14 01:52:51;;;;;;;7.32;3.88;;;15.50;99.90;;;;;;5081394;28;20049;-56
2023/08/14 01:55:17;;;;;;;6.80;3.65;;;15.40;99.90;;;;;;5079491;28;20096;-56
2023/08/14 01:57:42;;;;;;;8.02;3.92;;;15.40;99.90;;;;;;5101843;28;20502;-56
2023/08/14 02:00:09;;;;;;;6.57;3.38;;;15.40;99.90;;;;;;5099916;28;20257;-56
2023/08/14 02:02:36;;;;;;;6.40;3.33;;;15.50;99.90;;;;;;5101558;28;20043;-56
2023/08/14 02:05:02;;;;;;;7.53;3.80;;;15.50;99.90;;;;;;5100840;28;20080;-58
2023/08/14 02:07:27;;;;;;;8.55;4.20;;;15.40;99.90;;;;;;5100049;28;20052;-56
2023/08/14 02:09:53;;;;;;;8.20;4.10;;;15.40;99.90;;;;;;5083642;28;20104;-56
2023/08/14 02:12:19;;;;;;;7.85;4.13;;;15.40;99.90;;;;;;5099613;28;20119;-56
2023/08/14 02:14:44;;;;;;;7.68;3.70;;;15.50;99.90;;;;;;5101197;28;20093;-56
2023/08/14 02:17:10;;;;;;;8.98;4.60;;;15.50;99.90;;;;;;5099216;28;20043;-56
2023/08/14 02:19:36;;;;;;;7.03;4.18;;;15.50;99.90;;;;;;5100303;28;20071;-56
2023/08/14 02:22:01;;;;;;;7.50;4.10;;;15.30;99.90;;;;;;5100299;28;20051;-56
2023/08/14 02:24:27;;;;;;;7.47;3.67;;;15.30;99.90;;;;;;5099777;28;20050;-56
2023/08/14 02:26:53;;;;;;;7.82;3.85;;;15.40;99.90;;;;;;5083118;28;20052;-58
2023/08/14 02:29:18;;;;;;;7.18;3.92;;;15.40;99.90;;;;;;5099348;28;20104;-56
2023/08/14 02:31:46;;;;;;;8.13;4.20;;;15.40;99.90;;;;;;5101140;28;20588;-57
2023/08/14 02:34:30;;;;;;;7.40;3.53;;;15.40;99.90;;;;;;5098901;28;20063;-56
2023/08/14 02:36:55;;;;;;;8.57;3.95;;;15.30;99.90;;;;;;5100490;28;20032;-56
2023/08/14 02:39:21;;;;;;;8.82;4.10;;;15.40;99.90;;;;;;5100480;28;20047;-55
2023/08/14 02:41:47;;;;;;;8.40;4.50;;;15.20;99.90;;;;;;5099289;28;20044;-56
2023/08/14 02:44:12;;;;;;;6.55;4.03;;;15.30;99.90;;;;;;5100610;28;20040;-56
2023/08/14 02:46:38;;;;;;;6.60;3.80;;;15.20;99.90;;;;;;5098636;28;20048;-56
2023/08/14 02:49:03;;;;;;;7.38;4.57;;;15.10;99.90;;;;;;5100034;28;20071;-55
2023/08/14 02:51:29;;;;;;;7.40;4.18;;;15.30;99.90;;;;;;5080512;28;20055;-56
2023/08/14 02:53:55;;;;;;;9.35;4.00;;;15.20;99.90;;;;;;5099644;28;20044;-56
2023/08/14 02:56:20;;;;;;;9.25;4.50;;;15.20;99.90;;;;;;5090165;28;20040;-56
2023/08/14 02:58:46;;;;;;;7.65;3.80;;;15.20;99.90;;;;;;5078410;28;20039;-56
2023/08/14 03:01:12;;;;;;;7.95;4.00;;;15.20;99.90;;;;;;5080194;28;20104;-56
2023/08/14 03:03:37;;;;;;;7.85;4.70;;;15.30;99.90;;;;;;5060361;28;20458;-56
2023/08/14 03:06:03;;;;;;;9.13;4.13;;;15.20;99.90;;;;;;5080244;28;20051;-56
2023/08/14 03:08:28;;;;;;;8.88;4.30;;;15.30;99.90;;;;;;5078457;28;20040;-56
2023/08/14 03:10:54;;;;;;;8.52;4.57;;;15.40;99.90;;;;;;5079659;28;20037;-56
2023/08/14 03:13:20;;;;;;;8.23;4.45;;;15.20;99.90;;;;;;5078964;28;20044;-55
2023/08/14 03:15:46;;;;;;;8.38;4.18;;;15.30;99.90;;;;;;5078066;28;20044;-56
2023/08/14 03:18:11;;;;;;;9.32;4.50;;;15.20;99.90;;;;;;5061653;28;20373;-56
2023/08/14 03:20:37;;;;;;;9.73;4.65;;;15.30;99.90;;;;;;5077706;28;20103;-56
2023/08/14 03:23:03;;;;;;;8.70;4.65;;;15.30;99.90;;;;;;5079854;28;20036;-56
2023/08/14 03:25:28;;;;;;;11.23;4.65;;;15.20;99.90;;;;;;5077711;28;20045;-56
2023/08/14 03:27:54;;;;;;;7.32;4.72;;;15.30;99.90;;;;;;5079211;28;20043;-56
2023/08/14 03:30:20;;;;;;;9.60;5.57;;;15.20;99.90;;;;;;5077314;28;20092;-56
2023/08/14 03:32:45;;;;;;;7.68;4.72;;;15.30;99.90;;;;;;5078500;28;20048;-57
2023/08/14 03:35:11;;;;;;;10.35;5.35;;;15.30;99.90;;;;;;5079157;28;20047;-55
2023/08/14 03:37:37;;;;;;;8.82;5.70;;;15.10;99.90;;;;;;5077346;28;20062;-56
2023/08/14 03:40:03;;;;;;;9.75;6.03;;;15.20;99.90;;;;;;5079680;28;20068;-57
2023/08/14 03:42:28;;;;;;;9.85;5.93;;;15.10;99.90;;;;;;5077143;28;20511;-57
2023/08/14 03:44:54;;;;;;;13.18;7.32;;;15.10;99.90;;;;;;5078744;28;20100;-57
2023/08/14 03:47:20;;;;;;;10.27;6.70;;;15.20;99.90;;;;;;5078133;28;20044;-57
2023/08/14 03:49:45;;;;;;;11.43;6.68;;;15.00;99.90;;;;;;5078486;28;20063;-59
2023/08/14 03:52:11;;;;;;;11.43;7.50;;;15.20;99.90;;;;;;5079182;28;20055;-56
2023/08/14 03:54:37;;;;;;;10.90;7.32;;;15.10;99.90;;;;;;5077239;28;20150;-57
2023/08/14 03:57:02;;;;;;;12.32;7.53;;;15.10;99.90;;;;;;5094798;28;20044;-56
2023/08/14 03:59:28;;;;;;;9.82;7.28;;;15.10;99.90;;;;;;5097052;28;20519;-57
2023/08/14 04:01:53;;;;;;;12.43;6.85;;;15.10;99.90;;;;;;5099422;28;20047;-57
2023/08/14 04:04:19;;;;;;;12.20;7.97;;;15.20;99.90;;;;;;5097755;28;20443;-57
2023/08/14 04:06:47;;;;;;;13.75;8.32;;;15.10;99.90;;;;;;5098693;28;20063;-57
2023/08/14 04:09:13;;;;;;;11.73;8.05;;;15.20;99.90;;;;;;5098824;28;20111;-56
2023/08/14 04:11:39;;;;;;;12.20;8.27;;;15.00;99.90;;;;;;5097601;28;20071;-56
2023/08/14 04:14:05;;;;;;;12.73;7.80;;;15.20;99.90;;;;;;5099689;28;20055;-56
2023/08/14 04:16:43;;;;;;;12.73;9.05;;;15.20;99.90;;;;;;5096800;28;20063;-56
2023/08/14 04:19:17;;;;;;;11.82;8.23;;;15.10;99.90;;;;;;5098899;28;20043;-57
2023/08/14 04:21:43;;;;;;;15.52;8.95;;;15.10;99.90;;;;;;5097611;28;20040;-57
2023/08/14 04:24:09;;;;;;;13.30;8.15;;;15.10;99.90;;;;;;5098013;28;20047;-57
2023/08/14 04:26:36;;;;;;;13.48;8.45;;;15.20;99.90;;;;;;5098869;28;20082;-56
2023/08/14 04:29:08;;;;;;;14.10;7.70;;;15.10;99.90;;;;;;5097180;28;20029;-57
2023/08/14 04:31:38;;;;;;;14.35;9.45;;;15.20;99.90;;;;;;5099271;28;20129;-57
2023/08/14 04:34:05;;;;;;;13.80;7.93;;;15.10;99.90;;;;;;5096705;28;20039;-56
2023/08/14 04:36:33;;;;;;;11.77;8.40;;;15.20;99.90;;;;;;5098478;28;20075;-57
2023/08/14 04:38:59;;;;;;;12.68;7.90;;;15.10;99.90;;;;;;5097667;28;20066;-55
2023/08/14 04:41:26;;;;;;;15.35;8.80;;;15.20;99.90;;;;;;5097229;28;20040;-56
2023/08/14 04:43:52;;;;;;;15.85;8.93;;;15.20;99.90;;;;;;5098952;28;20040;-56
2023/08/14 04:46:34;;;;;;;13.27;8.70;;;15.30;99.90;;;;;;5096412;28;20071;-57
2023/08/14 04:49:00;;;;;;;11.15;7.93;;;15.20;99.90;;;;;;5098540;28;20090;-57
2023/08/14 04:51:26;;;;;;;12.32;7.65;;;15.40;99.90;;;;;;5096498;28;20036;-56
2023/08/14 04:53:53;;;;;;;13.77;8.00;;;15.40;99.90;;;;;;5098146;28;20051;-57
2023/08/14 04:56:19;;;;;;;12.55;7.63;;;15.40;99.90;;;;;;5088608;28;20081;-56
2023/08/14 04:58:44;;;;;;;12.45;7.88;;;15.40;99.90;;;;;;5076622;28;20075;-57
2023/08/14 05:01:10;;;;;;;13.43;8.48;;;15.60;99.90;;;;;;5078504;28;20058;-56
2023/08/14 05:03:36;;;;;;;10.68;7.85;;;15.50;99.90;;;;;;5076065;28;20104;-57
2023/08/14 05:06:02;;;;;;;12.95;7.85;;;15.50;99.90;;;;;;5078376;28;20036;-56
2023/08/14 05:08:27;;;;;;;11.07;8.10;;;15.50;99.90;;;;;;5075935;28;20496;-56
2023/08/14 05:10:54;;;;;;;12.07;8.20;;;15.50;99.90;;;;;;5078029;28;20048;-57
2023/08/14 05:13:20;;;;;;;13.00;8.13;;;15.60;99.90;;;;;;5077306;28;20119;-56
2023/08/14 05:15:47;;;;;;;14.68;8.65;;;15.60;99.90;;;;;;5058930;28;20153;-57
2023/08/14 05:18:13;;;;;;;12.63;8.13;;;15.60;99.90;;;;;;5078199;28;20036;-57
2023/08/14 05:20:45;;;;;;;12.00;7.93;;;15.60;99.90;;;;;;5076002;28;20067;-57
2023/08/14 05:23:11;;;;;;;12.18;8.68;;;15.70;99.90;;;;;;5078232;28;20639;-57
2023/08/14 05:25:38;;;;;;;15.07;8.45;;;15.70;99.90;;;;;;5076227;28;20041;-56
2023/08/14 05:28:04;;;;;;;13.27;8.23;;;15.70;99.90;;;;;;5043148;28;20569;-56
2023/08/14 05:30:30;;;;;;;13.70;9.27;;;15.70;99.90;;;;;;5077059;28;20045;-56
2023/08/14 05:32:56;;;;;;;12.85;8.27;;;15.80;99.90;;;;;;5076424;28;20052;-56
2023/08/14 05:35:24;;;;;;;16.33;8.75;;;15.70;99.90;;;;;;5078119;28;20511;-55
2023/08/14 05:37:56;;;;;;;13.32;8.27;;;15.90;99.90;;;;;;5075958;28;20040;-56
2023/08/14 05:40:22;;;;;;;13.90;8.25;;;15.80;99.90;;;;;;5077926;28;20049;-57
2023/08/14 05:43:05;;;;;;;13.43;8.38;;;16.00;99.90;;;;;;5076048;28;20048;-56
2023/08/14 05:45:39;;;;;;;12.07;8.07;;;16.00;99.90;;;;;;5077277;28;20068;-56
2023/08/14 05:48:06;;;;;;;11.82;8.70;;;16.00;99.90;;;;;;5059561;28;20036;-56
2023/08/14 05:50:33;;;;;;;15.43;8.32;;;15.90;99.90;;;;;;5076091;28;20052;-54
2023/08/14 05:53:03;;;;;;;11.75;8.13;;;16.10;99.90;;;;;;5077615;28;20044;-56
2023/08/14 05:55:30;;;;;;;13.88;9.00;;;16.10;99.90;;;;;;5081475;28;20052;-56
2023/08/14 05:57:56;;;;;;;15.02;8.95;;;16.10;99.90;;;;;;5101429;28;20036;-56
2023/08/14 06:00:22;;;;;;;12.73;8.57;;;16.30;99.90;;;;;;5100462;28;20105;-56
2023/08/14 06:02:47;;;;;;;13.60;8.20;;;16.40;99.90;;;;;;5100823;28;20093;-56
2023/08/14 06:05:13;;;;;;;14.52;8.73;;;16.30;99.90;;;;;;5101636;28;20054;-56
2023/08/14 06:07:39;;;;;;;13.57;8.15;;;16.40;99.90;;;;;;5099462;28;20040;-56
2023/08/14 06:10:06;;;;;;;13.90;8.40;;;16.30;99.90;;;;;;5101394;28;20040;-56
2023/08/14 06:12:32;;;;;;;15.27;9.05;;;16.50;99.90;;;;;;5099717;28;20044;-57
2023/08/14 06:14:58;;;;;;;13.85;8.32;;;16.50;99.90;;;;;;5100851;28;20073;-56
2023/08/14 06:17:24;;;;;;;14.85;8.57;;;16.40;99.90;;;;;;5100302;28;20044;-56
2023/08/14 06:19:50;;;;;;;13.20;8.50;;;16.70;99.90;;;;;;5100280;28;20048;-56
2023/08/14 06:22:17;;;;;;;13.32;8.23;;;16.60;99.90;;;;;;5101130;28;20055;-55
2023/08/14 06:24:43;;;;;;;16.77;8.32;;;16.60;99.90;;;;;;5099538;28;20036;-56
2023/08/14 06:27:09;;;;;;;15.70;8.65;;;16.80;99.90;;;;;;5100958;28;20051;-55
2023/08/14 06:29:35;;;;;;;14.45;8.27;;;16.80;99.90;;;;;;5099033;28;20036;-56
2023/08/14 06:32:00;;;;;;;12.13;7.82;;;16.90;99.90;;;;;;5100699;28;20055;-56
2023/08/14 06:34:27;;;;;;;13.90;7.70;;;16.90;99.90;;;;;;5099354;28;20055;-55
2023/08/14 06:36:52;;;;;;;13.27;7.75;;;16.90;99.90;;;;;;5099808;28;20051;-56
2023/08/14 06:39:18;;;;;;;13.15;7.05;;;17.10;99.90;;;;;;5100425;28;20040;-55
2023/08/14 06:41:44;;;;;;;13.82;7.50;;;16.90;99.90;;;;;;5098752;28;20040;-56
2023/08/14 06:44:10;;;;;;;13.65;7.57;;;17.00;99.90;;;;;;5100623;28;20059;-56
2023/08/14 06:46:36;;;;;;;12.73;7.30;;;17.20;99.90;;;;;;5098714;28;20048;-56
2023/08/14 06:49:02;;;;;;;14.05;7.13;;;17.30;99.90;;;;;;5100188;28;20127;-56
2023/08/14 06:51:27;;;;;;;12.25;6.88;;;17.30;99.90;;;;;;5099043;28;20040;-56
2023/08/14 06:53:53;;;;;;;11.70;6.72;;;17.20;99.90;;;;;;5099681;28;20522;-56
2023/08/14 06:56:19;;;;;;;12.27;6.68;;;17.40;99.90;;;;;;5090791;28;20052;-56
2023/08/14 06:58:45;;;;;;;11.88;6.57;;;17.60;99.90;;;;;;5078103;28;20489;-55
2023/08/14 07:01:11;;;;;;;12.07;6.45;;;17.50;99.90;;;;;;5080467;28;20079;-56
2023/08/14 07:03:36;;;;;;;12.00;6.00;;;17.50;99.90;;;;;;5077779;28;20507;-57
2023/08/14 07:06:03;;;;;;;12.23;6.30;;;17.60;99.90;;;;;;5078827;28;20040;-56
2023/08/14 07:08:29;;;;;;;11.73;6.38;;;17.90;99.90;;;;;;5078393;28;20105;-56
2023/08/14 07:10:54;;;;;;;13.68;6.53;;;17.80;99.90;;;;;;5079238;28;20487;-56
2023/08/14 07:13:22;;;;;;;11.70;5.70;;;18.00;99.90;;;;;;5078824;28;20041;-56
2023/08/14 07:15:48;;;;;;;10.90;5.95;;;18.20;99.90;;;;;;5078183;28;20052;-56
2023/08/14 07:18:18;;;;;;;10.20;5.35;;;18.40;99.90;;;;;;5079653;28;20047;-56
2023/08/14 07:20:45;;;;;;;8.95;5.65;;;18.60;99.90;;;;;;5077337;28;20048;-56
2023/08/14 07:23:12;;;;;;;12.40;5.68;;;18.70;99.90;;;;;;5079318;28;20039;-56
2023/08/14 07:25:38;;;;;;;14.13;5.45;;;18.70;99.90;;;;;;5077890;28;20048;-56
2023/08/14 07:28:04;;;;;;;10.45;5.22;;;18.90;99.90;;;;;;5078742;28;20101;-56
2023/08/14 07:30:30;;;;;;;9.68;5.07;;;19.10;99.90;;;;;;5078902;28;20048;-55
2023/08/14 07:32:56;;;;;;;9.05;5.30;;;19.10;99.90;;;;;;5077793;28;20572;-56
2023/08/14 07:35:22;;;;;;;9.77;4.72;;;19.30;99.90;;;;;;5079574;28;20139;-56
2023/08/14 07:37:48;;;;;;;9.70;4.38;;;19.30;99.90;;;;;;5077129;28;20058;-55
2023/08/14 07:40:13;;;;;;;8.60;4.45;;;19.30;99.90;;;;;;5079239;28;20133;-56
2023/08/14 07:42:39;;;;;;;8.68;3.88;;;19.30;99.90;;;;;;5077323;28;20086;-56
2023/08/14 07:45:05;;;;;;;8.43;3.88;;;19.30;99.90;;;;;;5078692;28;20043;-56
2023/08/14 07:47:31;;;;;;;7.90;4.20;;;19.40;99.90;;;;;;5078401;28;20037;-56
2023/08/14 07:49:56;;;;;;;9.43;4.40;;;19.50;99.90;;;;;;5077318;28;20040;-56
2023/08/14 07:52:24;;;;;;;8.57;4.20;;;19.40;99.90;;;;;;5060961;28;20052;-56
2023/08/14 07:54:50;;;;;;;7.78;3.45;;;19.50;99.90;;;;;;5076891;28;20055;-56
2023/08/14 07:57:16;;;;;;;7.60;3.95;;;19.50;99.90;;;;;;5096140;28;20046;-55
2023/08/14 07:59:41;;;;;;;8.15;3.90;;;19.50;99.90;;;;;;5097173;28;20471;-56
2023/08/14 08:02:07;;;;;;;9.55;4.10;;;19.50;99.90;;;;;;5099078;28;20067;-56
2023/08/14 08:04:36;;;;;;;7.35;3.53;;;19.60;99.90;;;;;;5097612;28;20082;-56
2023/08/14 08:07:03;;;;;;;9.88;4.30;;;19.60;99.90;;;;;;5097766;28;20086;-53
2023/08/14 08:09:29;;;;;;;10.82;4.85;;;19.50;99.90;;;;;;5098834;28;20052;-55
2023/08/14 08:11:55;;;;;;;9.75;3.88;;;19.50;99.90;;;;;;5096945;28;20055;-56
2023/08/14 08:14:21;;;;;;;9.02;4.00;;;19.40;99.90;;;;;;5080989;28;20036;-56
2023/08/14 08:16:48;;;;;;;10.38;3.95;;;19.50;99.90;;;;;;5096597;28;20051;-56
2023/08/14 08:19:14;;;;;;;7.65;3.92;;;19.50;99.90;;;;;;5098511;28;20116;-56
2023/08/14 08:21:40;;;;;;;9.82;4.05;;;19.60;99.90;;;;;;5097569;28;20039;-56
2023/08/14 08:24:06;;;;;;;10.10;3.85;;;19.70;99.90;;;;;;5097751;28;20381;-55
2023/08/14 08:26:32;;;;;;;7.10;3.33;;;19.70;99.90;;;;;;5098909;28;20068;-56
2023/08/14 08:28:58;;;;;;;9.55;3.20;;;19.70;99.90;;;;;;5096708;28;20052;-56
2023/08/14 08:31:24;;;;;;;8.35;3.80;;;19.70;99.90;;;;;;5099085;28;20123;-56
2023/08/14 08:33:50;;;;;;;8.18;4.28;;;19.80;99.90;;;;;;5096598;28;20618;-56
2023/08/14 08:36:17;;;;;;;8.48;3.35;;;19.70;99.90;;;;;;5098547;28;20080;-56
2023/08/14 08:38:47;;;;;;;8.73;4.65;;;19.80;99.90;;;;;;5097073;28;20048;-56
2023/08/14 08:41:14;;;;;;;9.27;4.40;;;19.80;99.90;;;;;;5097864;28;20099;-56
2023/08/14 08:43:41;;;;;;;9.35;4.10;;;19.80;99.90;;;;;;5098803;28;20035;-56
2023/08/14 08:46:12;;;;;;;8.88;4.43;;;19.90;99.90;;;;;;5096417;28;20121;-56
2023/08/14 08:48:41;;;;;;;9.30;3.70;;;20.00;99.90;;;;;;5098888;28;20051;-57
2023/08/14 08:51:08;;;;;;;12.07;4.88;;;20.00;99.90;;;;;;5096332;28;20103;-57
2023/08/14 08:53:35;;;;;;;11.25;4.80;;;20.00;99.90;;;;;;5098095;28;20464;-56
2023/08/14 08:56:00;;;;;;;8.18;4.30;;;20.10;99.90;;;;;;5090455;28;20049;-56
2023/08/14 08:58:26;;;;;;;9.93;4.07;;;20.30;99.90;;;;;;5077199;28;20061;-56
2023/08/14 09:00:54;;;;;;;10.73;3.90;;;20.40;99.90;;;;;;5078231;28;20040;-56
2023/08/14 09:03:21;;;;;;;7.53;3.75;;;20.50;99.90;;;;;;5076295;28;20036;-56
2023/08/14 09:05:46;;;;;;;7.53;3.53;;;20.80;99.90;;;;;;5077959;28;20056;-56
2023/08/14 09:08:12;;;;;;;10.98;4.20;;;20.80;99.90;;;;;;5076118;28;20047;-56
2023/08/14 09:10:38;;;;;;;8.55;2.80;;;20.90;99.90;;;;;;5078031;28;20072;-56
2023/08/14 09:13:04;;;;;;;9.38;3.20;;;21.10;99.90;;;;;;5076757;28;20076;-56
2023/08/14 09:15:30;;;;;;;6.93;2.50;;;21.10;99.90;;;;;;5077089;28;20044;-56
2023/08/14 09:17:55;;;;;;;8.10;2.78;;;21.00;99.90;;;;;;5077863;28;20062;-56
2023/08/14 09:20:22;;;;;;;7.75;2.38;;;20.90;99.90;;;;;;5058275;28;20106;-56
2023/08/14 09:22:48;;;;;;;6.22;2.35;;;20.80;99.90;;;;;;5078197;28;20539;-56
2023/08/14 09:25:15;;;;;;;6.32;2.35;;;20.80;99.90;;;;;;5076371;28;20048;-56
2023/08/14 09:27:42;;;;;;;7.30;2.42;;;20.60;99.50;;;;;;5077663;28;20051;-56
2023/08/14 09:30:11;;;;;;;5.65;2.17;;;20.50;96.10;;;;;;5079284;28;20587;-55
2023/08/14 09:32:37;;;;;;;7.10;2.50;;;20.80;99.80;;;;;;5081044;28;20032;-56
2023/08/14 09:35:04;;;;;;;5.03;1.95;;;20.90;94.90;;;;;;5081390;28;20062;-60
2023/08/14 09:37:29;;;;;;;6.20;2.00;;;21.10;99.90;;;;;;5061948;28;20106;-56
2023/08/14 09:40:16;;;;;;;6.38;2.13;;;21.30;99.80;;;;;;5081570;28;20078;-56
2023/08/14 09:42:43;;;;;;;5.60;1.83;;;21.40;89.50;;;;;;5079912;28;20066;-56
2023/08/14 09:45:10;;;;;;;6.50;1.77;;;21.60;90.40;;;;;;5080780;28;20049;-56
2023/08/14 09:47:35;;;;;;;6.72;2.00;;;21.60;86.80;;;;;;5080867;28;20050;-55
2023/08/14 09:50:02;;;;;;;5.65;1.70;;;21.70;78.70;;;;;;5079905;28;20045;-56
2023/08/14 09:52:28;;;;;;;6.03;2.08;;;21.80;80.50;;;;;;5081524;28;20078;-55
2023/08/14 09:54:54;;;;;;;6.03;2.20;;;22.00;85.80;;;;;;5079673;28;20048;-56
2023/08/14 09:57:24;;;;;;;5.10;1.40;;;22.00;80.30;;;;;;5099176;28;20051;-56
2023/08/14 09:59:51;;;;;;;5.03;1.33;;;22.10;65.70;;;;;;5100031;28;20040;-56
2023/08/14 10:02:17;;;;;;;5.68;1.50;;;22.00;60.90;;;;;;5101072;28;20048;-56
2023/08/14 10:04:46;;;;;;;7.30;1.42;;;22.30;62.10;;;;;;5101035;28;20046;-56
2023/08/14 10:07:17;;;;;;;4.82;1.50;;;22.30;65.50;;;;;;5099714;28;20040;-56
2023/08/14 10:10:03;;;;;;;5.78;1.90;;;22.30;60.10;;;;;;5101497;28;20043;-56
2023/08/14 10:12:33;;;;;;;6.53;1.85;;;22.50;54.40;;;;;;5099662;28;20411;-56
2023/08/14 10:15:16;;;;;;;5.00;1.67;;;22.60;64.00;;;;;;5100823;28;20126;-56
2023/08/14 10:17:50;;;;;;;6.65;1.80;;;22.50;56.70;;;;;;5101156;28;20050;-56
2023/08/14 10:20:19;;;;;;;5.18;1.58;;;22.60;54.60;;;;;;5099198;28;20048;-56
2023/08/14 10:22:46;;;;;;;4.18;1.50;;;22.50;53.60;;;;;;5101221;28;20100;-56
2023/08/14 10:25:13;;;;;;;6.80;1.70;;;22.30;52.60;;;;;;5099341;28;20395;-56
2023/08/14 10:27:39;;;;;;;5.88;1.73;;;22.30;54.10;;;;;;5101045;28;20032;-56
2023/08/14 10:30:07;;;;;;;4.90;1.40;;;22.30;50.60;;;;;;5099959;28;20040;-56
2023/08/14 10:32:34;;;;;;;5.22;1.80;;;22.40;57.40;;;;;;5100298;28;20044;-56
2023/08/14 10:35:00;;;;;;;4.80;1.92;;;22.50;54.10;;;;;;5101180;28;20032;-56
2023/08/14 10:37:44;;;;;;;3.90;1.30;;;22.60;54.60;;;;;;5098807;28;20060;-56
2023/08/14 10:40:23;;;;;;;4.43;1.33;;;22.80;47.40;;;;;;5100702;28;20164;-56
2023/08/14 10:42:57;;;;;;;5.88;1.50;;;22.70;33.80;;;;;;5099693;28;20115;-56
2023/08/14 10:45:25;;;;;;;5.22;1.40;;;22.70;37.40;;;;;;5100010;28;20051;-56
2023/08/14 10:47:52;;;;;;;5.63;1.40;;;22.60;43.20;;;;;;5100714;28;20040;-57
2023/08/14 10:50:20;;;;;;;4.68;1.30;;;22.60;40.80;;;;;;5098614;28;20395;-56
2023/08/14 10:52:50;;;;;;;9.23;1.80;;;22.50;37.00;;;;;;5100967;28;20056;-56
2023/08/14 10:55:22;;;;;;;5.05;1.20;;;22.70;47.10;;;;;;5098071;28;20098;-56
2023/08/14 10:57:48;;;;;;;4.40;1.20;;;22.90;48.40;;;;;;5080149;28;20080;-56
2023/08/14 11:00:25;;;;;;;6.85;1.50;;;23.10;47.60;;;;;;5079394;28;20396;-57
2023/08/14 11:03:06;;;;;;;5.53;1.40;;;23.20;44.70;;;;;;5078122;28;20552;-57
2023/08/14 11:05:39;;;;;;;5.10;1.20;;;23.30;40.40;;;;;;5080260;28;20044;-57
2023/08/14 11:08:10;;;;;;;4.50;1.42;;;23.30;37.90;;;;;;5077818;28;20052;-57
2023/08/14 11:10:37;;;;;;;4.95;1.50;;;23.50;41.40;;;;;;5079535;28;20496;-56
2023/08/14 11:13:06;;;;;;;3.28;1.15;;;23.40;37.70;;;;;;5078489;28;20044;-55
2023/08/14 11:15:33;;;;;;;4.38;1.27;;;23.60;37.00;;;;;;5078550;28;20049;-56
2023/08/14 11:18:00;;;;;;;5.68;1.30;;;23.40;34.80;;;;;;5079754;28;20113;-56
2023/08/14 11:20:27;;;;;;;4.75;1.38;;;23.50;37.50;;;;;;5077496;28;20093;-56
2023/08/14 11:22:53;;;;;;;5.57;2.05;;;23.40;39.30;;;;;;5079822;28;20048;-57
2023/08/14 11:25:20;;;;;;;4.20;1.27;;;23.40;41.70;;;;;;5077387;28;20083;-56
2023/08/14 11:27:53;;;;;;;4.57;1.30;;;23.50;44.20;;;;;;5079487;28;20090;-56
2023/08/14 11:30:21;;;;;;;4.65;1.88;;;23.30;38.80;;;;;;5078802;28;20040;-56
2023/08/14 11:32:47;;;;;;;5.10;1.30;;;23.30;43.80;;;;;;5077901;28;20412;-55
2023/08/14 11:35:13;;;;;;;5.50;1.70;;;23.60;44.30;;;;;;5079895;28;20048;-56
2023/08/14 11:37:39;;;;;;;6.80;1.30;;;23.50;38.60;;;;;;5076944;28;20040;-56
2023/08/14 11:40:10;;;;;;;4.47;1.40;;;23.80;41.50;;;;;;5079511;28;20098;-56
2023/08/14 11:42:38;;;;;;;3.78;1.17;;;24.00;40.40;;;;;;5059295;28;20037;-55
2023/08/14 11:45:05;;;;;;;4.47;1.33;;;24.10;28.00;;;;;;5079144;28;20033;-56
2023/08/14 11:47:35;;;;;;;5.10;1.33;;;24.20;30.30;;;;;;5078112;28;20409;-56
2023/08/14 11:50:03;;;;;;;5.93;1.27;;;24.10;20.00;;;;;;5077086;28;20094;-57
2023/08/14 11:52:29;;;;;;;3.70;1.05;;;24.00;27.50;;;;;;5078183;28;20060;-56
2023/08/14 11:54:56;;;;;;;3.60;1.20;;;24.10;20.10;;;;;;5059063;28;20090;-56
2023/08/14 11:57:30;;;;;;;3.78;1.20;;;24.20;26.00;;;;;;5097019;28;20044;-57
2023/08/14 11:59:57;;;;;;;5.13;1.40;;;24.30;23.10;;;;;;5097413;28;20123;-56
2023/08/14 12:02:24;;;;;;;5.00;1.52;;;24.40;26.30;;;;;;5098289;28;20060;-56
2023/08/14 12:04:54;;;;;;;5.32;1.10;;;24.60;25.70;;;;;;5098608;28;20070;-56
2023/08/14 12:07:20;;;;;;;6.88;1.63;;;24.30;17.20;;;;;;5097046;28;20044;-57
2023/08/14 12:09:47;;;;;;;6.38;1.23;;;24.50;23.60;;;;;;5099357;28;20048;-57
2023/08/14 12:12:13;;;;;;;4.88;1.20;;;24.50;23.80;;;;;;5096923;28;20032;-57
2023/08/14 12:14:45;;;;;;;5.47;1.70;;;24.60;17.60;;;;;;5098874;28;20066;-57
2023/08/14 12:17:11;;;;;;;5.40;1.38;;;24.40;17.30;;;;;;5097560;28;20048;-56
2023/08/14 12:19:38;;;;;;;5.72;1.73;;;24.50;21.50;;;;;;5097958;28;20040;-56
2023/08/14 12:22:05;;;;;;;5.22;1.45;;;24.40;25.20;;;;;;5098884;28;20044;-56
2023/08/14 12:24:38;;;;;;;3.97;1.10;;;24.00;25.10;;;;;;5097004;28;20044;-56
2023/08/14 12:27:12;;;;;;;6.43;1.52;;;24.10;27.00;;;;;;5098944;28;20075;-57
2023/08/14 12:29:38;;;;;;;5.97;1.55;;;24.40;29.30;;;;;;5096666;28;20048;-57
2023/08/14 12:32:03;;;;;;;6.65;1.95;;;24.40;25.80;;;;;;5098504;28;20074;-57
2023/08/14 12:34:29;;;;;;;3.72;1.40;;;24.40;24.20;;;;;;5097314;28;20051;-56
2023/08/14 12:36:55;;;;;;;6.78;1.50;;;24.60;26.60;;;;;;5079347;28;20089;-56
2023/08/14 12:39:20;;;;;;;6.90;1.83;;;24.20;26.40;;;;;;5098444;28;20725;-58
2023/08/14 12:41:46;;;;;;;4.18;1.55;;;24.20;28.60;;;;;;5096880;28;20108;-58
2023/08/14 12:44:12;;;;;;;6.18;1.50;;;24.10;30.10;;;;;;5098579;28;20494;-57